sensor_id;sensor_type;location;lat;lon;timestamp;temperature;humidity
21646;DHT22;10984;45.712;4.800;2023-06-22T00:01:35;21.70;92.60
21646;DHT22;10984;45.712;4.800;2023-06-22T00:04:01;21.70;93.00
21646;DHT22;10984;45.712;4.800;2023-06-22T00:06:26;21.70;92.20
21646;DHT22;10984;45.712;4.800;2023-06-22T00:08:52;21.60;92.30
21646;DHT22;10984;45.712;4.800;2023-06-22T00:11:18;21.60;94.20
21646;DHT22;10984;45.712;4.800;2023-06-22T00:13:43;21.50;94.50
21646;DHT22;10984;45.712;4.800;2023-06-22T00:16:09;21.50;93.40
21646;DHT22;10984;45.712;4.800;2023-06-22T00:18:34;21.40;96.40
21646;DHT22;10984;45.712;4.800;2023-06-22T00:21:00;21.40;97.80
21646;DHT22;10984;45.712;4.800;2023-06-22T00:23:26;21.30;98.20
21646;DHT22;10984;45.712;4.800;2023-06-22T00:25:52;21.40;98.20
21646;DHT22;10984;45.712;4.800;2023-06-22T00:28:18;21.40;94.00
21646;DHT22;10984;45.712;4.800;2023-06-22T00:30:43;21.40;90.90
21646;DHT22;10984;45.712;4.800;2023-06-22T00:33:09;21.40;90.20
21646;DHT22;10984;45.712;4.800;2023-06-22T00:35:34;21.40;90.90
21646;DHT22;10984;45.712;4.800;2023-06-22T00:38:01;21.40;87.90
21646;DHT22;10984;45.712;4.800;2023-06-22T00:40:28;21.40;84.30
21646;DHT22;10984;45.712;4.800;2023-06-22T00:42:54;21.30;90.30
21646;DHT22;10984;45.712;4.800;2023-06-22T00:45:21;21.10;98.20
21646;DHT22;10984;45.712;4.800;2023-06-22T00:47:49;21.10;99.90
21646;DHT22;10984;45.712;4.800;2023-06-22T00:50:19;21.10;98.80
21646;DHT22;10984;45.712;4.800;2023-06-22T00:55:50;21.20;99.90
21646;DHT22;10984;45.712;4.800;2023-06-22T00:58:36;21.10;99.90
21646;DHT22;10984;45.712;4.800;2023-06-22T01:01:01;21.20;99.90
21646;DHT22;10984;45.712;4.800;2023-06-22T01:03:28;21.10;99.90
21646;DHT22;10984;45.712;4.800;2023-06-22T01:06:00;21.20;99.90
21646;DHT22;10984;45.712;4.800;2023-06-22T01:17:21;21.10;99.90
21646;DHT22;10984;45.712;4.800;2023-06-22T01:19:49;21.10;99.90
21646;DHT22;10984;45.712;4.800;2023-06-22T01:25:47;21.10;99.90
21646;DHT22;10984;45.712;4.800;2023-06-22T01:34:05;21.00;99.90
21646;DHT22;10984;45.712;4.800;2023-06-22T01:36:32;21.10;99.90
21646;DHT22;10984;45.712;4.800;2023-06-22T01:38:59;21.00;99.90
21646;DHT22;10984;45.712;4.800;2023-06-22T01:41:26;20.90;99.90
21646;DHT22;10984;45.712;4.800;2023-06-22T01:43:53;20.90;99.90
21646;DHT22;10984;45.712;4.800;2023-06-22T01:46:21;20.90;99.90
21646;DHT22;10984;45.712;4.800;2023-06-22T01:48:47;20.90;99.90
21646;DHT22;10984;45.712;4.800;2023-06-22T01:51:13;20.80;99.90
21646;DHT22;10984;45.712;4.800;2023-06-22T01:53:39;20.80;99.90
21646;DHT22;10984;45.712;4.800;2023-06-22T01:56:05;20.70;99.90
21646;DHT22;10984;45.712;4.800;2023-06-22T01:58:31;20.70;99.90
21646;DHT22;10984;45.712;4.800;2023-06-22T02:06:54;20.60;99.90
21646;DHT22;10984;45.712;4.800;2023-06-22T02:09:22;20.60;99.90
21646;DHT22;10984;45.712;4.800;2023-06-22T02:11:51;20.60;99.90
21646;DHT22;10984;45.712;4.800;2023-06-22T02:14:21;20.60;99.90
21646;DHT22;10984;45.712;4.800;2023-06-22T02:16:47;20.50;99.90
21646;DHT22;10984;45.712;4.800;2023-06-22T02:19:13;20.50;99.90
21646;DHT22;10984;45.712;4.800;2023-06-22T02:21:44;20.50;99.90
21646;DHT22;10984;45.712;4.800;2023-06-22T02:24:10;20.60;99.90
21646;DHT22;10984;45.712;4.800;2023-06-22T02:26:36;20.50;99.90
21646;DHT22;10984;45.712;4.800;2023-06-22T02:29:04;20.50;99.90
21646;DHT22;10984;45.712;4.800;2023-06-22T02:31:29;20.50;99.90
21646;DHT22;10984;45.712;4.800;2023-06-22T02:34:14;20.40;99.90
21646;DHT22;10984;45.712;4.800;2023-06-22T02:36:46;20.40;99.90
21646;DHT22;10984;45.712;4.800;2023-06-22T02:39:35;20.40;99.90
21646;DHT22;10984;45.712;4.800;2023-06-22T02:42:01;20.50;99.90
21646;DHT22;10984;45.712;4.800;2023-06-22T02:44:26;20.50;99.90
21646;DHT22;10984;45.712;4.800;2023-06-22T02:46:52;20.50;99.90
21646;DHT22;10984;45.712;4.800;2023-06-22T02:49:19;20.50;99.90
21646;DHT22;10984;45.712;4.800;2023-06-22T02:51:46;20.60;99.90
21646;DHT22;10984;45.712;4.800;2023-06-22T02:54:12;20.60;99.90
21646;DHT22;10984;45.712;4.800;2023-06-22T02:56:38;20.70;99.90
21646;DHT22;10984;45.712;4.800;2023-06-22T02:59:06;20.70;99.90
21646;DHT22;10984;45.712;4.800;2023-06-22T03:01:31;20.70;99.90
21646;DHT22;10984;45.712;4.800;2023-06-22T03:04:06;20.70;99.90
21646;DHT22;10984;45.712;4.800;2023-06-22T03:06:32;20.70;99.90
21646;DHT22;10984;45.712;4.800;2023-06-22T03:09:01;20.80;99.90
21646;DHT22;10984;45.712;4.800;2023-06-22T03:11:27;20.80;99.90
21646;DHT22;10984;45.712;4.800;2023-06-22T03:13:52;20.80;99.90
21646;DHT22;10984;45.712;4.800;2023-06-22T03:16:18;20.80;99.90
21646;DHT22;10984;45.712;4.800;2023-06-22T03:18:44;20.80;99.90
21646;DHT22;10984;45.712;4.800;2023-06-22T03:21:10;20.70;99.90
21646;DHT22;10984;45.712;4.800;2023-06-22T03:23:36;20.60;99.90
21646;DHT22;10984;45.712;4.800;2023-06-22T03:26:02;20.70;99.90
21646;DHT22;10984;45.712;4.800;2023-06-22T03:28:27;20.60;99.90
21646;DHT22;10984;45.712;4.800;2023-06-22T03:30:54;20.70;99.90
21646;DHT22;10984;45.712;4.800;2023-06-22T03:33:19;20.70;99.90
21646;DHT22;10984;45.712;4.800;2023-06-22T03:35:45;20.70;99.90
21646;DHT22;10984;45.712;4.800;2023-06-22T03:38:11;20.70;99.90
21646;DHT22;10984;45.712;4.800;2023-06-22T03:40:36;20.70;99.90
21646;DHT22;10984;45.712;4.800;2023-06-22T03:43:02;20.80;99.90
21646;DHT22;10984;45.712;4.800;2023-06-22T03:45:27;20.80;99.90
21646;DHT22;10984;45.712;4.800;2023-06-22T03:47:53;20.80;99.90
21646;DHT22;10984;45.712;4.800;2023-06-22T03:50:19;20.70;99.90
21646;DHT22;10984;45.712;4.800;2023-06-22T03:52:46;20.70;99.90
21646;DHT22;10984;45.712;4.800;2023-06-22T03:55:11;20.70;99.90
21646;DHT22;10984;45.712;4.800;2023-06-22T03:57:37;20.60;99.90
21646;DHT22;10984;45.712;4.800;2023-06-22T04:00:03;20.60;99.90
21646;DHT22;10984;45.712;4.800;2023-06-22T04:02:31;20.60;99.90
21646;DHT22;10984;45.712;4.800;2023-06-22T04:04:56;20.60;99.90
21646;DHT22;10984;45.712;4.800;2023-06-22T04:07:22;20.60;99.90
21646;DHT22;10984;45.712;4.800;2023-06-22T04:09:48;20.70;99.90
21646;DHT22;10984;45.712;4.800;2023-06-22T04:12:13;20.80;99.90
21646;DHT22;10984;45.712;4.800;2023-06-22T04:14:39;20.80;99.90
21646;DHT22;10984;45.712;4.800;2023-06-22T04:17:05;20.90;99.90
21646;DHT22;10984;45.712;4.800;2023-06-22T04:19:31;21.00;99.90
21646;DHT22;10984;45.712;4.800;2023-06-22T04:21:56;21.00;99.90
21646;DHT22;10984;45.712;4.800;2023-06-22T04:24:22;21.00;99.90
21646;DHT22;10984;45.712;4.800;2023-06-22T04:26:48;21.00;99.90
21646;DHT22;10984;45.712;4.800;2023-06-22T04:29:13;21.00;99.90
21646;DHT22;10984;45.712;4.800;2023-06-22T04:31:39;21.00;99.90
21646;DHT22;10984;45.712;4.800;2023-06-22T04:34:06;20.80;99.90
21646;DHT22;10984;45.712;4.800;2023-06-22T04:36:51;20.70;99.90
21646;DHT22;10984;45.712;4.800;2023-06-22T04:39:17;20.70;99.90
21646;DHT22;10984;45.712;4.800;2023-06-22T04:41:44;20.70;99.90
21646;DHT22;10984;45.712;4.800;2023-06-22T04:46:57;20.80;99.90
21646;DHT22;10984;45.712;4.800;2023-06-22T04:49:42;20.70;99.90
21646;DHT22;10984;45.712;4.800;2023-06-22T04:52:10;20.70;99.90
21646;DHT22;10984;45.712;4.800;2023-06-22T04:54:37;20.70;99.90
21646;DHT22;10984;45.712;4.800;2023-06-22T04:57:05;20.70;99.90
21646;DHT22;10984;45.712;4.800;2023-06-22T04:59:36;20.80;99.90
21646;DHT22;10984;45.712;4.800;2023-06-22T05:02:02;20.90;99.90
21646;DHT22;10984;45.712;4.800;2023-06-22T05:04:29;21.00;99.90
21646;DHT22;10984;45.712;4.800;2023-06-22T05:07:13;21.10;99.90
21646;DHT22;10984;45.712;4.800;2023-06-22T05:09:39;21.10;99.90
21646;DHT22;10984;45.712;4.800;2023-06-22T05:12:05;21.20;99.90
21646;DHT22;10984;45.712;4.800;2023-06-22T05:14:30;21.10;99.90
21646;DHT22;10984;45.712;4.800;2023-06-22T05:16:56;21.10;99.90
21646;DHT22;10984;45.712;4.800;2023-06-22T05:19:24;21.20;99.90
21646;DHT22;10984;45.712;4.800;2023-06-22T05:21:50;21.10;99.90
21646;DHT22;10984;45.712;4.800;2023-06-22T05:24:16;21.10;99.90
21646;DHT22;10984;45.712;4.800;2023-06-22T05:26:41;21.00;99.90
21646;DHT22;10984;45.712;4.800;2023-06-22T05:29:07;20.90;99.90
21646;DHT22;10984;45.712;4.800;2023-06-22T05:31:33;20.90;99.90
21646;DHT22;10984;45.712;4.800;2023-06-22T05:33:59;20.90;99.90
21646;DHT22;10984;45.712;4.800;2023-06-22T05:36:26;20.90;99.90
21646;DHT22;10984;45.712;4.800;2023-06-22T05:38:56;21.00;99.90
21646;DHT22;10984;45.712;4.800;2023-06-22T05:41:22;21.00;99.90
21646;DHT22;10984;45.712;4.800;2023-06-22T05:43:47;21.20;99.90
21646;DHT22;10984;45.712;4.800;2023-06-22T05:46:13;21.10;99.90
21646;DHT22;10984;45.712;4.800;2023-06-22T05:48:39;21.00;99.90
21646;DHT22;10984;45.712;4.800;2023-06-22T05:51:05;21.00;99.90
21646;DHT22;10984;45.712;4.800;2023-06-22T05:53:30;21.10;99.90
21646;DHT22;10984;45.712;4.800;2023-06-22T05:55:56;21.20;99.90
21646;DHT22;10984;45.712;4.800;2023-06-22T05:58:22;21.30;99.90
21646;DHT22;10984;45.712;4.800;2023-06-22T06:00:47;21.50;99.90
21646;DHT22;10984;45.712;4.800;2023-06-22T06:03:13;21.60;99.90
21646;DHT22;10984;45.712;4.800;2023-06-22T06:05:42;21.70;99.90
21646;DHT22;10984;45.712;4.800;2023-06-22T06:08:08;21.90;99.90
21646;DHT22;10984;45.712;4.800;2023-06-22T06:10:36;21.80;99.90
21646;DHT22;10984;45.712;4.800;2023-06-22T06:13:02;21.80;99.90
21646;DHT22;10984;45.712;4.800;2023-06-22T06:15:29;21.90;99.90
21646;DHT22;10984;45.712;4.800;2023-06-22T06:17:55;21.90;99.90
21646;DHT22;10984;45.712;4.800;2023-06-22T06:20:25;21.90;99.90
21646;DHT22;10984;45.712;4.800;2023-06-22T06:22:51;21.90;99.90
21646;DHT22;10984;45.712;4.800;2023-06-22T06:25:17;22.10;99.90
21646;DHT22;10984;45.712;4.800;2023-06-22T06:27:49;22.00;99.90
21646;DHT22;10984;45.712;4.800;2023-06-22T06:30:16;22.00;99.90
21646;DHT22;10984;45.712;4.800;2023-06-22T06:32:43;22.10;99.90
21646;DHT22;10984;45.712;4.800;2023-06-22T06:35:11;22.20;99.90
21646;DHT22;10984;45.712;4.800;2023-06-22T06:37:39;22.30;99.90
21646;DHT22;10984;45.712;4.800;2023-06-22T06:40:07;22.60;99.90
21646;DHT22;10984;45.712;4.800;2023-06-22T06:42:39;22.90;85.30
21646;DHT22;10984;45.712;4.800;2023-06-22T06:45:07;23.10;26.40
21646;DHT22;10984;45.712;4.800;2023-06-22T06:47:33;23.20;14.80
21646;DHT22;10984;45.712;4.800;2023-06-22T06:49:59;23.10;45.90
21646;DHT22;10984;45.712;4.800;2023-06-22T06:52:25;23.10;59.50
21646;DHT22;10984;45.712;4.800;2023-06-22T06:54:51;22.90;90.00
21646;DHT22;10984;45.712;4.800;2023-06-22T06:57:18;22.90;64.70
21646;DHT22;10984;45.712;4.800;2023-06-22T06:59:44;22.90;64.00
21646;DHT22;10984;45.712;4.800;2023-06-22T07:02:09;23.00;58.90
21646;DHT22;10984;45.712;4.800;2023-06-22T07:04:35;23.20;63.20
21646;DHT22;10984;45.712;4.800;2023-06-22T07:07:02;23.30;29.50
21646;DHT22;10984;45.712;4.800;2023-06-22T07:09:28;23.40;16.80
21646;DHT22;10984;45.712;4.800;2023-06-22T07:11:54;23.60;11.70
21646;DHT22;10984;45.712;4.800;2023-06-22T07:14:19;23.60;1.00
21646;DHT22;10984;45.712;4.800;2023-06-22T07:16:45;23.60;1.00
21646;DHT22;10984;45.712;4.800;2023-06-22T07:19:29;23.80;1.00
21646;DHT22;10984;45.712;4.800;2023-06-22T07:21:55;23.80;1.00
21646;DHT22;10984;45.712;4.800;2023-06-22T07:24:21;23.80;1.00
21646;DHT22;10984;45.712;4.800;2023-06-22T07:26:48;23.80;1.00
21646;DHT22;10984;45.712;4.800;2023-06-22T07:29:18;23.60;1.00
21646;DHT22;10984;45.712;4.800;2023-06-22T07:31:46;23.30;1.00
21646;DHT22;10984;45.712;4.800;2023-06-22T07:34:12;23.30;1.00
21646;DHT22;10984;45.712;4.800;2023-06-22T07:36:38;23.30;9.70
21646;DHT22;10984;45.712;4.800;2023-06-22T07:39:04;23.30;24.70
21646;DHT22;10984;45.712;4.800;2023-06-22T07:41:30;23.40;71.90
21646;DHT22;10984;45.712;4.800;2023-06-22T07:43:56;23.40;91.50
21646;DHT22;10984;45.712;4.800;2023-06-22T07:46:22;23.50;59.00
21646;DHT22;10984;45.712;4.800;2023-06-22T07:48:48;23.60;35.70
21646;DHT22;10984;45.712;4.800;2023-06-22T07:51:14;23.70;12.90
21646;DHT22;10984;45.712;4.800;2023-06-22T07:53:43;23.80;12.50
21646;DHT22;10984;45.712;4.800;2023-06-22T07:56:28;23.70;13.50
21646;DHT22;10984;45.712;4.800;2023-06-22T07:58:53;23.60;20.20
21646;DHT22;10984;45.712;4.800;2023-06-22T08:01:20;23.60;46.10
21646;DHT22;10984;45.712;4.800;2023-06-22T08:03:48;23.60;57.50
21646;DHT22;10984;45.712;4.800;2023-06-22T08:06:14;23.60;99.90
21646;DHT22;10984;45.712;4.800;2023-06-22T08:08:39;23.60;99.90
21646;DHT22;10984;45.712;4.800;2023-06-22T08:11:05;23.70;99.90
21646;DHT22;10984;45.712;4.800;2023-06-22T08:13:31;23.80;99.90
21646;DHT22;10984;45.712;4.800;2023-06-22T08:15:57;23.80;99.90
21646;DHT22;10984;45.712;4.800;2023-06-22T08:18:23;23.80;99.90
21646;DHT22;10984;45.712;4.800;2023-06-22T08:20:48;23.80;99.90
21646;DHT22;10984;45.712;4.800;2023-06-22T08:23:15;23.80;99.90
21646;DHT22;10984;45.712;4.800;2023-06-22T08:25:40;23.90;99.90
21646;DHT22;10984;45.712;4.800;2023-06-22T08:28:06;23.90;99.90
21646;DHT22;10984;45.712;4.800;2023-06-22T08:30:32;23.90;99.90
21646;DHT22;10984;45.712;4.800;2023-06-22T08:32:58;24.00;99.90
21646;DHT22;10984;45.712;4.800;2023-06-22T08:35:24;24.10;99.90
21646;DHT22;10984;45.712;4.800;2023-06-22T08:37:49;24.30;87.50
21646;DHT22;10984;45.712;4.800;2023-06-22T08:40:18;24.40;90.10
21646;DHT22;10984;45.712;4.800;2023-06-22T08:42:45;24.60;79.50
21646;DHT22;10984;45.712;4.800;2023-06-22T08:45:11;24.60;99.90
21646;DHT22;10984;45.712;4.800;2023-06-22T08:47:38;24.70;85.30
21646;DHT22;10984;45.712;4.800;2023-06-22T08:50:04;24.60;19.90
21646;DHT22;10984;45.712;4.800;2023-06-22T08:52:30;24.70;77.10
21646;DHT22;10984;45.712;4.800;2023-06-22T08:54:56;24.70;99.90
21646;DHT22;10984;45.712;4.800;2023-06-22T08:57:22;24.60;99.90
21646;DHT22;10984;45.712;4.800;2023-06-22T08:59:47;24.60;99.90
21646;DHT22;10984;45.712;4.800;2023-06-22T09:02:13;24.60;99.90
21646;DHT22;10984;45.712;4.800;2023-06-22T09:04:39;24.50;99.90
21646;DHT22;10984;45.712;4.800;2023-06-22T09:07:05;24.40;99.90
21646;DHT22;10984;45.712;4.800;2023-06-22T09:09:30;24.30;99.90
21646;DHT22;10984;45.712;4.800;2023-06-22T09:11:56;24.30;99.90
21646;DHT22;10984;45.712;4.800;2023-06-22T09:14:21;24.10;99.90
21646;DHT22;10984;45.712;4.800;2023-06-22T09:16:47;24.10;90.20
21646;DHT22;10984;45.712;4.800;2023-06-22T09:19:13;24.30;32.20
21646;DHT22;10984;45.712;4.800;2023-06-22T09:21:38;24.30;28.60
21646;DHT22;10984;45.712;4.800;2023-06-22T09:24:04;24.30;99.90
21646;DHT22;10984;45.712;4.800;2023-06-22T09:26:30;24.40;27.40
21646;DHT22;10984;45.712;4.800;2023-06-22T09:28:56;24.40;10.80
21646;DHT22;10984;45.712;4.800;2023-06-22T09:31:21;24.30;12.90
21646;DHT22;10984;45.712;4.800;2023-06-22T09:36:35;24.30;4.30
21646;DHT22;10984;45.712;4.800;2023-06-22T09:39:00;24.30;39.10
21646;DHT22;10984;45.712;4.800;2023-06-22T09:41:31;24.30;74.80
21646;DHT22;10984;45.712;4.800;2023-06-22T09:43:56;24.30;50.30
21646;DHT22;10984;45.712;4.800;2023-06-22T09:46:23;24.30;1.00
21646;DHT22;10984;45.712;4.800;2023-06-22T09:48:50;24.20;1.00
21646;DHT22;10984;45.712;4.800;2023-06-22T09:51:16;24.20;1.00
21646;DHT22;10984;45.712;4.800;2023-06-22T09:53:42;24.20;23.00
21646;DHT22;10984;45.712;4.800;2023-06-22T09:56:09;24.20;44.80
21646;DHT22;10984;45.712;4.800;2023-06-22T09:58:40;24.20;94.20
21646;DHT22;10984;45.712;4.800;2023-06-22T10:01:06;24.10;99.90
21646;DHT22;10984;45.712;4.800;2023-06-22T10:03:32;24.00;99.90
21646;DHT22;10984;45.712;4.800;2023-06-22T10:05:57;23.90;99.90
21646;DHT22;10984;45.712;4.800;2023-06-22T10:08:23;23.90;99.90
21646;DHT22;10984;45.712;4.800;2023-06-22T10:10:49;23.80;99.90
21646;DHT22;10984;45.712;4.800;2023-06-22T10:13:14;23.80;99.90
21646;DHT22;10984;45.712;4.800;2023-06-22T10:15:41;23.80;99.90
21646;DHT22;10984;45.712;4.800;2023-06-22T10:18:08;23.80;99.90
21646;DHT22;10984;45.712;4.800;2023-06-22T10:20:33;23.80;99.90
21646;DHT22;10984;45.712;4.800;2023-06-22T10:22:59;23.70;99.90
21646;DHT22;10984;45.712;4.800;2023-06-22T10:25:24;23.60;99.90
21646;DHT22;10984;45.712;4.800;2023-06-22T10:27:50;23.60;99.90
21646;DHT22;10984;45.712;4.800;2023-06-22T10:30:16;23.70;99.90
21646;DHT22;10984;45.712;4.800;2023-06-22T10:32:42;23.70;99.90
21646;DHT22;10984;45.712;4.800;2023-06-22T10:35:09;23.70;99.90
21646;DHT22;10984;45.712;4.800;2023-06-22T10:37:55;23.60;99.90
21646;DHT22;10984;45.712;4.800;2023-06-22T10:40:21;23.60;99.90
21646;DHT22;10984;45.712;4.800;2023-06-22T10:42:47;23.50;99.90
21646;DHT22;10984;45.712;4.800;2023-06-22T10:45:12;23.40;99.90
21646;DHT22;10984;45.712;4.800;2023-06-22T10:47:39;23.30;99.90
21646;DHT22;10984;45.712;4.800;2023-06-22T10:50:05;23.10;99.90
21646;DHT22;10984;45.712;4.800;2023-06-22T10:52:31;23.00;99.90
21646;DHT22;10984;45.712;4.800;2023-06-22T10:54:57;23.00;99.90
21646;DHT22;10984;45.712;4.800;2023-06-22T10:57:22;22.80;99.90
21646;DHT22;10984;45.712;4.800;2023-06-22T10:59:48;22.80;99.90
21646;DHT22;10984;45.712;4.800;2023-06-22T11:02:14;22.60;99.90
21646;DHT22;10984;45.712;4.800;2023-06-22T11:04:39;22.60;99.90
21646;DHT22;10984;45.712;4.800;2023-06-22T11:07:05;22.70;99.90
21646;DHT22;10984;45.712;4.800;2023-06-22T11:09:31;22.70;99.90
21646;DHT22;10984;45.712;4.800;2023-06-22T11:11:57;22.70;99.90
21646;DHT22;10984;45.712;4.800;2023-06-22T11:14:24;22.60;99.90
21646;DHT22;10984;45.712;4.800;2023-06-22T11:16:50;22.60;99.90
21646;DHT22;10984;45.712;4.800;2023-06-22T11:19:16;22.60;99.90
21646;DHT22;10984;45.712;4.800;2023-06-22T11:21:41;22.50;99.90
21646;DHT22;10984;45.712;4.800;2023-06-22T11:24:07;22.50;99.90
21646;DHT22;10984;45.712;4.800;2023-06-22T11:26:33;22.40;99.90
21646;DHT22;10984;45.712;4.800;2023-06-22T11:28:59;22.30;99.90
21646;DHT22;10984;45.712;4.800;2023-06-22T11:31:25;22.20;86.40
21646;DHT22;10984;45.712;4.800;2023-06-22T11:33:51;22.20;99.90
21646;DHT22;10984;45.712;4.800;2023-06-22T11:36:16;22.20;96.00
21646;DHT22;10984;45.712;4.800;2023-06-22T11:38:43;22.10;79.40
21646;DHT22;10984;45.712;4.800;2023-06-22T11:41:09;22.10;92.40
21646;DHT22;10984;45.712;4.800;2023-06-22T11:43:35;22.00;90.70
21646;DHT22;10984;45.712;4.800;2023-06-22T11:46:03;21.90;97.90
21646;DHT22;10984;45.712;4.800;2023-06-22T11:48:31;22.00;99.90
21646;DHT22;10984;45.712;4.800;2023-06-22T11:50:57;22.00;84.20
21646;DHT22;10984;45.712;4.800;2023-06-22T11:53:25;22.00;99.90
21646;DHT22;10984;45.712;4.800;2023-06-22T11:55:51;21.90;99.90
21646;DHT22;10984;45.712;4.800;2023-06-22T11:58:18;21.90;99.90
21646;DHT22;10984;45.712;4.800;2023-06-22T12:00:43;21.60;90.60
21646;DHT22;10984;45.712;4.800;2023-06-22T12:03:10;21.70;99.90
21646;DHT22;10984;45.712;4.800;2023-06-22T12:05:36;21.70;98.60
21646;DHT22;10984;45.712;4.800;2023-06-22T12:08:02;21.70;95.90
21646;DHT22;10984;45.712;4.800;2023-06-22T12:10:28;21.70;95.10
21646;DHT22;10984;45.712;4.800;2023-06-22T12:13:12;21.70;93.70
21646;DHT22;10984;45.712;4.800;2023-06-22T12:15:38;21.60;32.30
21646;DHT22;10984;45.712;4.800;2023-06-22T12:18:03;21.50;33.00
21646;DHT22;10984;45.712;4.800;2023-06-22T12:20:29;21.50;81.20
21646;DHT22;10984;45.712;4.800;2023-06-22T12:22:55;21.50;17.10
21646;DHT22;10984;45.712;4.800;2023-06-22T12:25:23;21.50;26.40
21646;DHT22;10984;45.712;4.800;2023-06-22T12:27:49;21.40;61.10
21646;DHT22;10984;45.712;4.800;2023-06-22T12:30:16;21.40;74.00
21646;DHT22;10984;45.712;4.800;2023-06-22T12:32:42;21.40;56.80
21646;DHT22;10984;45.712;4.800;2023-06-22T12:35:07;21.40;81.90
21646;DHT22;10984;45.712;4.800;2023-06-22T12:40:23;21.40;86.50
21646;DHT22;10984;45.712;4.800;2023-06-22T12:42:49;21.40;90.70
21646;DHT22;10984;45.712;4.800;2023-06-22T12:45:15;21.30;96.90
21646;DHT22;10984;45.712;4.800;2023-06-22T12:47:40;21.30;91.40
21646;DHT22;10984;45.712;4.800;2023-06-22T12:50:06;21.30;90.00
21646;DHT22;10984;45.712;4.800;2023-06-22T12:52:32;21.30;89.70
21646;DHT22;10984;45.712;4.800;2023-06-22T12:54:58;21.30;81.00
21646;DHT22;10984;45.712;4.800;2023-06-22T12:57:24;21.30;85.80
21646;DHT22;10984;45.712;4.800;2023-06-22T12:59:49;21.30;78.20
21646;DHT22;10984;45.712;4.800;2023-06-22T13:02:15;21.20;90.30
21646;DHT22;10984;45.712;4.800;2023-06-22T13:04:41;21.10;96.70
21646;DHT22;10984;45.712;4.800;2023-06-22T13:07:07;21.00;95.40
21646;DHT22;10984;45.712;4.800;2023-06-22T13:09:32;20.90;99.90
21646;DHT22;10984;45.712;4.800;2023-06-22T13:12:00;20.80;94.10
21646;DHT22;10984;45.712;4.800;2023-06-22T13:14:25;20.70;98.40
21646;DHT22;10984;45.712;4.800;2023-06-22T13:16:51;20.40;99.90
21646;DHT22;10984;45.712;4.800;2023-06-22T13:19:17;20.30;99.90
21646;DHT22;10984;45.712;4.800;2023-06-22T13:21:42;20.10;99.90
21646;DHT22;10984;45.712;4.800;2023-06-22T13:24:08;20.20;99.90
21646;DHT22;10984;45.712;4.800;2023-06-22T13:26:34;20.20;99.90
21646;DHT22;10984;45.712;4.800;2023-06-22T13:28:59;20.20;99.90
21646;DHT22;10984;45.712;4.800;2023-06-22T13:31:25;20.20;99.90
21646;DHT22;10984;45.712;4.800;2023-06-22T13:33:50;20.20;99.90
21646;DHT22;10984;45.712;4.800;2023-06-22T13:36:18;20.30;99.90
21646;DHT22;10984;45.712;4.800;2023-06-22T13:38:44;20.20;99.90
21646;DHT22;10984;45.712;4.800;2023-06-22T13:41:10;20.10;99.90
21646;DHT22;10984;45.712;4.800;2023-06-22T13:43:35;20.00;99.90
21646;DHT22;10984;45.712;4.800;2023-06-22T13:46:01;19.90;99.90
21646;DHT22;10984;45.712;4.800;2023-06-22T13:48:27;19.70;99.90
21646;DHT22;10984;45.712;4.800;2023-06-22T13:50:54;19.60;99.90
21646;DHT22;10984;45.712;4.800;2023-06-22T13:53:20;19.20;99.90
21646;DHT22;10984;45.712;4.800;2023-06-22T13:55:45;19.30;99.90
21646;DHT22;10984;45.712;4.800;2023-06-22T13:58:13;19.50;99.90
21646;DHT22;10984;45.712;4.800;2023-06-22T14:00:38;19.70;99.90
21646;DHT22;10984;45.712;4.800;2023-06-22T14:03:04;19.80;99.90
21646;DHT22;10984;45.712;4.800;2023-06-22T14:05:29;19.90;99.90
21646;DHT22;10984;45.712;4.800;2023-06-22T14:07:55;19.90;99.90
21646;DHT22;10984;45.712;4.800;2023-06-22T14:10:21;19.90;99.90
21646;DHT22;10984;45.712;4.800;2023-06-22T14:12:46;19.90;99.90
21646;DHT22;10984;45.712;4.800;2023-06-22T14:15:12;19.80;99.90
21646;DHT22;10984;45.712;4.800;2023-06-22T14:17:38;19.60;99.90
21646;DHT22;10984;45.712;4.800;2023-06-22T14:20:04;19.60;99.90
21646;DHT22;10984;45.712;4.800;2023-06-22T14:22:31;19.60;99.90
21646;DHT22;10984;45.712;4.800;2023-06-22T14:24:56;19.50;99.90
21646;DHT22;10984;45.712;4.800;2023-06-22T14:27:24;19.60;99.90
21646;DHT22;10984;45.712;4.800;2023-06-22T14:29:49;19.50;99.90
21646;DHT22;10984;45.712;4.800;2023-06-22T14:32:15;19.50;99.90
21646;DHT22;10984;45.712;4.800;2023-06-22T14:34:40;19.40;99.90
21646;DHT22;10984;45.712;4.800;2023-06-22T14:37:07;19.40;99.90
21646;DHT22;10984;45.712;4.800;2023-06-22T14:39:34;19.40;99.90
21646;DHT22;10984;45.712;4.800;2023-06-22T14:42:00;19.30;99.90
21646;DHT22;10984;45.712;4.800;2023-06-22T14:44:44;19.20;99.90
21646;DHT22;10984;45.712;4.800;2023-06-22T14:47:10;19.20;99.90
21646;DHT22;10984;45.712;4.800;2023-06-22T14:49:36;19.10;99.90
21646;DHT22;10984;45.712;4.800;2023-06-22T14:52:02;19.00;99.90
21646;DHT22;10984;45.712;4.800;2023-06-22T14:54:27;19.00;99.90
21646;DHT22;10984;45.712;4.800;2023-06-22T14:56:53;19.00;99.90
21646;DHT22;10984;45.712;4.800;2023-06-22T14:59:18;19.10;99.90
21646;DHT22;10984;45.712;4.800;2023-06-22T15:01:44;19.10;99.90
21646;DHT22;10984;45.712;4.800;2023-06-22T15:04:10;19.00;99.90
21646;DHT22;10984;45.712;4.800;2023-06-22T15:06:35;19.10;99.90
21646;DHT22;10984;45.712;4.800;2023-06-22T15:09:01;18.80;99.90
21646;DHT22;10984;45.712;4.800;2023-06-22T15:11:27;18.50;99.90
21646;DHT22;10984;45.712;4.800;2023-06-22T15:13:52;18.40;99.90
21646;DHT22;10984;45.712;4.800;2023-06-22T15:16:18;18.60;99.90
21646;DHT22;10984;45.712;4.800;2023-06-22T15:18:43;18.50;99.90
21646;DHT22;10984;45.712;4.800;2023-06-22T15:21:10;18.60;99.90
21646;DHT22;10984;45.712;4.800;2023-06-22T15:23:36;18.70;99.90
21646;DHT22;10984;45.712;4.800;2023-06-22T15:26:03;18.80;99.90
21646;DHT22;10984;45.712;4.800;2023-06-22T15:28:47;19.00;99.90
21646;DHT22;10984;45.712;4.800;2023-06-22T15:31:13;19.00;99.90
21646;DHT22;10984;45.712;4.800;2023-06-22T15:33:39;19.10;99.90
21646;DHT22;10984;45.712;4.800;2023-06-22T15:36:04;19.20;99.90
21646;DHT22;10984;45.712;4.800;2023-06-22T15:38:32;19.30;99.90
21646;DHT22;10984;45.712;4.800;2023-06-22T15:40:58;19.20;99.90
21646;DHT22;10984;45.712;4.800;2023-06-22T15:43:24;19.20;99.90
21646;DHT22;10984;45.712;4.800;2023-06-22T15:45:49;19.40;99.90
21646;DHT22;10984;45.712;4.800;2023-06-22T15:48:15;19.30;99.90
21646;DHT22;10984;45.712;4.800;2023-06-22T15:50:41;19.20;99.90
21646;DHT22;10984;45.712;4.800;2023-06-22T15:53:06;19.10;99.90
21646;DHT22;10984;45.712;4.800;2023-06-22T15:55:32;19.10;99.90
21646;DHT22;10984;45.712;4.800;2023-06-22T15:57:57;19.40;99.90
21646;DHT22;10984;45.712;4.800;2023-06-22T16:00:23;19.50;99.90
21646;DHT22;10984;45.712;4.800;2023-06-22T16:02:49;19.70;99.90
21646;DHT22;10984;45.712;4.800;2023-06-22T16:05:14;19.70;99.90